createdAt,value
2023-01-09T00:01:23.961Z,43.38
2023-01-09T00:02:56.182Z,49.78
2023-01-09T00:04:28.180Z,34.55
2023-01-09T00:07:31.953Z,40.65
2023-01-09T00:09:04.104Z,59.15
2023-01-09T00:10:39.300Z,58.25
2023-01-09T00:12:11.331Z,42.90
2023-01-09T00:13:43.519Z,47.92
2023-01-09T00:15:15.832Z,46.67
2023-01-09T00:16:48.010Z,41.40
2023-01-09T00:18:20.007Z,58.78
2023-01-09T00:19:52.294Z,60.65
2023-01-09T00:21:24.456Z,46.15
2023-01-09T00:22:56.561Z,47.10
2023-01-09T00:24:28.719Z,42.17
2023-01-09T00:26:09.658Z,29.98
2023-01-09T00:27:41.854Z,34.67
2023-01-09T00:29:14.054Z,32.17
2023-01-09T00:30:46.149Z,43.00
2023-01-09T00:32:18.333Z,33.13
2023-01-09T00:33:59.836Z,31.50
2023-01-09T00:37:04.417Z,54.67
2023-01-09T00:38:37.828Z,46.78
2023-01-09T00:40:11.034Z,51.92
2023-01-09T00:41:46.805Z,59.17
2023-01-09T00:43:20.370Z,56.53
2023-01-09T00:46:28.151Z,47.17
2023-01-09T00:48:09.280Z,51.17
2023-01-09T00:49:41.641Z,52.03
2023-01-09T00:51:13.925Z,36.95
2023-01-09T00:52:46.790Z,41.00
2023-01-09T00:54:19.730Z,45.75
2023-01-09T00:55:52.211Z,45.95
2023-01-09T00:57:24.127Z,48.60
2023-01-09T00:58:56.296Z,30.55
2023-01-09T01:00:28.332Z,34.55
2023-01-09T01:02:00.672Z,81.40
2023-01-09T01:03:32.827Z,62.58
2023-01-09T01:05:24.284Z,26.23
2023-01-09T01:07:15.177Z,45.60
2023-01-09T01:08:47.316Z,41.28
2023-01-09T01:10:23.341Z,41.05
2023-01-09T01:11:55.338Z,49.03
2023-01-09T01:13:27.351Z,33.95
2023-01-09T01:15:00.589Z,45.45
2023-01-09T01:16:33.061Z,40.33
2023-01-09T01:18:05.287Z,37.88
2023-01-09T01:19:38.647Z,43.08
2023-01-09T01:21:12.631Z,33.10
2023-01-09T01:22:44.682Z,26.83
2023-01-09T01:24:20.075Z,52.63
2023-01-09T01:25:52.244Z,28.45
2023-01-09T01:27:24.270Z,33.25
2023-01-09T01:28:56.290Z,26.20
2023-01-09T01:30:28.348Z,40.78
2023-01-09T01:32:00.411Z,44.65
2023-01-09T01:33:35.175Z,33.47
2023-01-09T01:35:08.321Z,37.78
2023-01-09T01:36:40.386Z,37.67
2023-01-09T01:38:12.342Z,47.97
2023-01-09T01:39:44.375Z,53.70
2023-01-09T01:41:29.751Z,37.53
2023-01-09T01:43:02.118Z,29.92
2023-01-09T01:45:09.765Z,27.15
2023-01-09T01:46:41.729Z,24.63
2023-01-09T01:48:17.754Z,28.38
2023-01-09T01:49:50.085Z,30.83
2023-01-09T01:51:24.451Z,36.90
2023-01-09T01:53:35.122Z,36.83
2023-01-09T01:55:09.643Z,30.88
2023-01-09T01:56:51.337Z,26.10
2023-01-09T01:58:23.296Z,30.83
2023-01-09T01:59:57.845Z,34.72
2023-01-09T02:01:30.320Z,27.85
2023-01-09T02:03:03.166Z,42.60
2023-01-09T02:04:37.195Z,44.30
2023-01-09T02:06:10.638Z,43.53
2023-01-09T02:07:42.655Z,38.65
2023-01-09T02:09:16.219Z,34.95
2023-01-09T02:12:26.742Z,36.88
2023-01-09T02:13:59.678Z,37.15
2023-01-09T02:15:55.095Z,30.35
2023-01-09T02:17:41.109Z,46.00
2023-01-09T02:19:25.284Z,34.97
2023-01-09T02:21:21.782Z,44.88
2023-01-09T02:22:56.889Z,32.05
2023-01-09T02:24:42.968Z,88.13
2023-01-09T02:26:42.518Z,34.20
2023-01-09T02:28:48.520Z,35.60
2023-01-09T02:30:36.919Z,31.05
2023-01-09T02:32:08.925Z,31.10
2023-01-09T02:34:05.297Z,33.40
2023-01-09T02:35:47.319Z,28.27
2023-01-09T02:37:37.779Z,50.22
2023-01-09T02:39:25.437Z,40.35
2023-01-09T02:41:26.041Z,44.13
2023-01-09T02:42:59.681Z,32.15
2023-01-09T02:46:04.986Z,52.38
2023-01-09T02:47:39.754Z,42.22
2023-01-09T02:49:12.596Z,36.42
2023-01-09T02:50:50.680Z,29.88
2023-01-09T02:52:28.271Z,38.80
2023-01-09T02:54:05.095Z,46.70
2023-01-09T02:56:24.495Z,38.40
2023-01-09T02:58:05.146Z,55.00
2023-01-09T03:00:14.588Z,64.57
2023-01-09T03:02:16.891Z,30.98
2023-01-09T03:04:39.999Z,46.75
2023-01-09T03:06:20.509Z,36.95
2023-01-09T03:08:00.205Z,37.97
2023-01-09T03:11:06.987Z,32.17
2023-01-09T03:12:40.771Z,36.65
2023-01-09T03:14:16.205Z,36.78
2023-01-09T03:15:50.985Z,55.65
2023-01-09T03:17:32.849Z,34.35
2023-01-09T03:19:08.541Z,33.63
2023-01-09T03:20:41.460Z,52.83
2023-01-09T03:22:13.485Z,41.97
2023-01-09T03:23:52.794Z,28.17
2023-01-09T03:25:26.073Z,28.13
2023-01-09T03:26:58.160Z,35.95
2023-01-09T03:28:30.273Z,27.55
2023-01-09T03:30:02.384Z,33.42
2023-01-09T03:31:34.477Z,36.20
2023-01-09T03:33:06.475Z,41.78
2023-01-09T03:34:38.547Z,34.15
2023-01-09T03:36:12.245Z,31.77
2023-01-09T03:37:44.273Z,30.52
2023-01-09T03:39:16.232Z,28.13
2023-01-09T03:40:48.311Z,29.67
2023-01-09T03:42:20.289Z,29.35
2023-01-09T03:43:52.359Z,23.30
2023-01-09T03:45:24.339Z,29.05
2023-01-09T03:46:56.358Z,33.05
2023-01-09T03:48:28.838Z,28.67
2023-01-09T03:50:00.940Z,34.78
2023-01-09T03:51:32.875Z,26.25
2023-01-09T03:53:05.098Z,30.13
2023-01-09T03:54:37.186Z,31.73
2023-01-09T03:56:09.298Z,26.70
2023-01-09T03:57:41.353Z,25.00
2023-01-09T03:59:13.398Z,26.25
2023-01-09T04:00:46.449Z,44.72
2023-01-09T04:02:21.501Z,31.52
2023-01-09T04:03:53.500Z,25.85
2023-01-09T04:05:25.544Z,26.88
2023-01-09T04:06:57.753Z,42.67
2023-01-09T04:08:30.959Z,41.00
2023-01-09T04:10:03.708Z,37.35
2023-01-09T04:11:35.769Z,37.15
2023-01-09T04:13:07.794Z,39.85
2023-01-09T04:14:39.926Z,48.70
2023-01-09T04:16:12.056Z,35.58
2023-01-09T04:17:44.104Z,33.90
2023-01-09T04:19:16.145Z,28.88
2023-01-09T04:20:48.963Z,32.58
2023-01-09T04:22:20.934Z,29.45
2023-01-09T04:23:52.881Z,24.15
2023-01-09T04:25:24.995Z,28.63
2023-01-09T04:26:57.015Z,27.23
2023-01-09T04:28:29.107Z,41.97
2023-01-09T04:30:01.095Z,41.97
2023-01-09T04:31:33.173Z,33.72
2023-01-09T04:33:05.244Z,34.90
2023-01-09T04:34:37.257Z,31.55
2023-01-09T04:36:09.716Z,30.13
2023-01-09T04:37:41.765Z,28.00
2023-01-09T04:39:13.762Z,31.98
2023-01-09T04:40:48.145Z,28.30
2023-01-09T04:42:20.082Z,30.92
2023-01-09T04:43:52.180Z,25.13
2023-01-09T04:45:24.232Z,25.98
2023-01-09T04:46:57.517Z,24.60
2023-01-09T04:48:29.672Z,29.77
2023-01-09T04:50:02.129Z,21.05
2023-01-09T04:51:34.133Z,26.23
2023-01-09T04:53:07.230Z,26.27
2023-01-09T04:54:40.439Z,20.70
2023-01-09T04:56:12.513Z,28.13
2023-01-09T04:57:44.609Z,42.78
2023-01-09T04:59:16.837Z,26.83
2023-01-09T05:00:48.964Z,32.10
2023-01-09T05:02:21.053Z,27.60
2023-01-09T05:03:53.167Z,26.00
2023-01-09T05:05:25.259Z,25.80
2023-01-09T05:06:57.319Z,25.35
2023-01-09T05:08:29.337Z,25.55
2023-01-09T05:10:01.923Z,37.15
2023-01-09T05:11:36.695Z,28.33
2023-01-09T05:13:08.749Z,33.60
2023-01-09T05:14:40.802Z,25.90
2023-01-09T05:16:12.936Z,26.25
2023-01-09T05:17:44.955Z,29.35
2023-01-09T05:19:16.910Z,29.17
2023-01-09T05:20:48.949Z,45.05
2023-01-09T05:22:21.094Z,34.03
2023-01-09T05:23:53.260Z,27.98
2023-01-09T05:25:25.239Z,29.80
2023-01-09T05:26:57.367Z,28.55
2023-01-09T05:28:29.512Z,37.45
2023-01-09T05:30:01.669Z,75.22
2023-01-09T05:31:33.903Z,37.58
2023-01-09T05:33:06.001Z,35.95
2023-01-09T05:34:38.060Z,26.83
2023-01-09T05:36:10.159Z,30.45
2023-01-09T05:37:42.169Z,42.20
2023-01-09T05:39:14.267Z,35.55
2023-01-09T05:40:46.314Z,31.20
2023-01-09T05:42:18.308Z,27.65
2023-01-09T05:43:50.358Z,47.22
2023-01-09T05:45:22.406Z,30.98
2023-01-09T05:46:54.495Z,24.40
2023-01-09T05:48:26.727Z,25.00
2023-01-09T05:49:58.907Z,30.90
2023-01-09T05:51:32.237Z,28.20
2023-01-09T05:53:04.307Z,25.67
2023-01-09T05:54:36.514Z,29.33
2023-01-09T05:56:09.634Z,31.67
2023-01-09T05:57:43.370Z,33.88
2023-01-09T05:59:15.404Z,24.30
2023-01-09T06:00:50.214Z,30.08
2023-01-09T06:02:22.406Z,25.30
2023-01-09T06:03:54.480Z,30.23
2023-01-09T06:05:26.537Z,24.75
2023-01-09T06:06:58.577Z,29.42
2023-01-09T06:08:30.645Z,27.35
2023-01-09T06:10:02.613Z,26.92
2023-01-09T06:11:36.376Z,27.48
2023-01-09T06:13:08.394Z,30.67
2023-01-09T06:14:40.445Z,24.67
2023-01-09T06:16:14.229Z,35.25
2023-01-09T06:19:22.782Z,34.25
2023-01-09T06:20:54.813Z,28.15
2023-01-09T06:22:26.834Z,29.45
2023-01-09T06:23:59.165Z,24.05
2023-01-09T06:25:31.340Z,26.85
2023-01-09T06:27:03.513Z,25.45
2023-01-09T06:28:35.697Z,28.08
2023-01-09T06:30:08.466Z,31.50
2023-01-09T06:31:40.493Z,27.42
2023-01-09T06:33:12.653Z,27.52
2023-01-09T06:34:45.057Z,28.45
2023-01-09T06:36:17.345Z,31.83
2023-01-09T06:37:50.202Z,28.13
2023-01-09T06:39:22.176Z,28.73
2023-01-09T06:40:54.220Z,27.38
2023-01-09T06:42:26.201Z,27.92
2023-01-09T06:43:58.203Z,25.13
2023-01-09T06:45:30.322Z,32.70
2023-01-09T06:47:03.079Z,32.58
2023-01-09T06:48:35.393Z,26.85
2023-01-09T06:50:09.551Z,26.17
2023-01-09T06:51:41.572Z,25.17
2023-01-09T06:53:13.669Z,25.83
2023-01-09T06:54:45.674Z,23.02
2023-01-09T06:56:17.784Z,29.27
2023-01-09T06:57:49.817Z,28.65
2023-01-09T06:59:21.831Z,30.88
2023-01-09T07:00:55.893Z,27.27
2023-01-09T07:02:27.993Z,28.67
2023-01-09T07:04:00.098Z,22.45
2023-01-09T07:05:33.840Z,26.50
2023-01-09T07:07:05.894Z,26.42
2023-01-09T07:08:37.909Z,24.42
2023-01-09T07:10:10.990Z,27.25
2023-01-09T07:11:43.067Z,29.58
2023-01-09T07:13:15.079Z,25.95
2023-01-09T07:14:47.180Z,29.20
2023-01-09T07:16:19.514Z,29.80
2023-01-09T07:17:52.378Z,24.30
2023-01-09T07:19:24.541Z,33.60
2023-01-09T07:20:56.615Z,28.83
2023-01-09T07:22:28.780Z,28.25
2023-01-09T07:24:03.906Z,27.80
2023-01-09T07:25:35.926Z,29.13
2023-01-09T07:27:08.036Z,26.40
2023-01-09T07:28:40.210Z,27.80
2023-01-09T07:30:12.935Z,29.98
2023-01-09T07:31:44.954Z,31.10
2023-01-09T07:33:17.215Z,28.73
2023-01-09T07:34:50.129Z,29.58
2023-01-09T07:36:22.170Z,29.42
2023-01-09T07:37:54.197Z,31.17
2023-01-09T07:39:26.240Z,32.20
2023-01-09T07:40:58.494Z,28.98
2023-01-09T07:42:30.671Z,30.00
2023-01-09T07:44:05.832Z,32.22
2023-01-09T07:45:37.853Z,33.88
2023-01-09T07:47:09.849Z,31.70
2023-01-09T07:48:41.924Z,36.45
2023-01-09T07:50:14.013Z,31.77
2023-01-09T07:51:48.552Z,31.35
2023-01-09T07:53:20.574Z,27.77
2023-01-09T07:54:52.578Z,31.08
2023-01-09T07:58:10.080Z,32.50
2023-01-09T07:59:42.184Z,30.38
2023-01-09T08:01:14.579Z,30.25
2023-01-09T08:02:46.884Z,28.92
2023-01-09T08:04:21.719Z,26.42
2023-01-09T08:05:53.853Z,28.90
2023-01-09T08:07:25.830Z,27.33
2023-01-09T08:09:00.831Z,30.70
2023-01-09T08:10:32.970Z,35.58
2023-01-09T08:12:05.369Z,33.70
2023-01-09T08:13:37.494Z,35.33
2023-01-09T08:15:10.010Z,33.72
2023-01-09T08:16:42.191Z,39.63
2023-01-09T08:18:14.317Z,32.58
2023-01-09T08:19:46.688Z,31.50
2023-01-09T08:21:18.717Z,31.05
2023-01-09T08:22:50.994Z,31.13
2023-01-09T08:24:22.992Z,31.45
2023-01-09T08:25:55.106Z,30.10
2023-01-09T08:27:27.131Z,33.08
2023-01-09T08:28:59.282Z,38.47
2023-01-09T08:30:31.295Z,37.55
2023-01-09T08:32:03.355Z,38.53
2023-01-09T08:33:35.525Z,37.78
2023-01-09T08:35:08.424Z,39.20
2023-01-09T08:36:40.483Z,35.40
2023-01-09T08:38:12.540Z,31.95
2023-01-09T08:39:44.793Z,36.42
2023-01-09T08:41:35.614Z,36.72
2023-01-09T08:43:26.555Z,39.63
2023-01-09T08:45:17.164Z,37.00
2023-01-09T08:47:07.435Z,33.47
2023-01-09T08:48:39.774Z,33.50
2023-01-09T08:50:12.331Z,36.35
2023-01-09T08:51:44.381Z,34.88
2023-01-09T08:53:16.378Z,33.20
2023-01-09T08:54:48.446Z,31.95
2023-01-09T08:56:20.547Z,35.70
2023-01-09T08:57:53.914Z,30.70
2023-01-09T08:59:25.978Z,32.17
2023-01-09T09:01:02.319Z,28.90
2023-01-09T09:02:34.510Z,31.08
2023-01-09T09:04:06.704Z,29.40
2023-01-09T09:05:38.721Z,32.47
2023-01-09T09:07:10.769Z,29.92
2023-01-09T09:08:42.764Z,38.80
2023-01-09T09:10:15.600Z,31.13
2023-01-09T09:11:47.635Z,33.83
2023-01-09T09:13:19.737Z,35.50
2023-01-09T09:15:10.749Z,30.58
2023-01-09T09:16:42.926Z,30.48
2023-01-09T09:18:15.050Z,27.92
2023-01-09T09:19:47.136Z,26.85
2023-01-09T09:21:20.773Z,27.50
2023-01-09T09:24:24.774Z,27.35
2023-01-09T09:25:56.845Z,26.20
2023-01-09T09:27:28.815Z,30.40
2023-01-09T09:29:00.897Z,27.10
2023-01-09T09:30:33.268Z,28.83
2023-01-09T09:32:05.331Z,25.48
2023-01-09T09:33:37.333Z,23.63
2023-01-09T09:35:10.419Z,24.95
2023-01-09T09:36:42.492Z,25.95
2023-01-09T09:38:14.627Z,23.52
2023-01-09T09:39:46.648Z,25.30
2023-01-09T09:41:56.386Z,24.33
2023-01-09T09:44:15.120Z,32.78
2023-01-09T09:46:00.046Z,27.15
2023-01-09T09:47:49.695Z,24.92
2023-01-09T09:49:29.249Z,23.38
2023-01-09T09:51:23.853Z,23.88
2023-01-09T09:54:49.764Z,26.55
2023-01-09T09:56:24.005Z,28.02
2023-01-09T09:57:57.039Z,25.95
2023-01-09T09:59:33.645Z,26.92
2023-01-09T10:03:16.499Z,32.67
2023-01-09T10:04:55.743Z,33.85
2023-01-09T10:06:32.447Z,31.65
2023-01-09T10:08:16.359Z,36.30
2023-01-09T10:09:56.390Z,41.63
2023-01-09T10:11:35.535Z,34.58
2023-01-09T10:13:27.962Z,36.10
2023-01-09T10:15:02.597Z,36.75
2023-01-09T10:17:00.022Z,37.95
2023-01-09T10:18:55.487Z,34.05
2023-01-09T10:20:50.606Z,37.25
2023-01-09T10:22:47.282Z,38.75
2023-01-09T10:24:22.652Z,40.17
2023-01-09T10:26:42.075Z,36.67
2023-01-09T10:28:38.974Z,37.63
2023-01-09T10:30:31.631Z,39.05
2023-01-09T10:32:33.879Z,34.25
2023-01-09T10:34:15.102Z,36.55
2023-01-09T10:36:13.620Z,36.25
2023-01-09T10:37:47.156Z,34.13
2023-01-09T10:41:01.714Z,35.30
2023-01-09T10:42:47.957Z,33.78
2023-01-09T10:44:42.490Z,39.08
2023-01-09T10:46:31.245Z,40.45
2023-01-09T10:48:29.679Z,37.40
2023-01-09T10:50:26.124Z,36.15
2023-01-09T10:52:11.436Z,38.95
2023-01-09T10:53:46.763Z,35.63
2023-01-09T10:55:20.190Z,37.22
2023-01-09T10:56:56.940Z,35.58
2023-01-09T10:58:29.948Z,34.45
2023-01-09T11:00:02.137Z,34.78
2023-01-09T11:01:38.565Z,36.03
2023-01-09T11:03:15.810Z,34.92
2023-01-09T11:06:26.373Z,29.10
2023-01-09T11:08:31.540Z,34.30
2023-01-09T11:11:45.823Z,33.10
2023-01-09T11:13:26.262Z,34.25
2023-01-09T11:15:30.611Z,29.63
2023-01-09T11:17:07.182Z,34.40
2023-01-09T11:18:41.601Z,30.88
2023-01-09T11:20:17.657Z,32.97
2023-01-09T11:21:50.235Z,28.30
2023-01-09T11:23:30.967Z,30.50
2023-01-09T11:25:03.893Z,34.67
2023-01-09T11:26:35.967Z,31.58
2023-01-09T11:28:10.258Z,31.65
2023-01-09T11:29:43.659Z,37.45
2023-01-09T11:31:21.807Z,30.88
2023-01-09T11:32:58.086Z,32.05
2023-01-09T11:34:34.569Z,30.23
2023-01-09T11:36:11.568Z,30.83
2023-01-09T11:37:44.682Z,29.50
2023-01-09T11:39:38.306Z,26.17
2023-01-09T11:41:20.746Z,26.83
2023-01-09T11:43:31.074Z,29.80
2023-01-09T11:45:03.228Z,29.00
2023-01-09T11:46:39.879Z,24.48
2023-01-09T11:48:34.600Z,27.50
2023-01-09T11:50:24.537Z,26.15
2023-01-09T11:52:15.882Z,29.08
2023-01-09T11:53:56.584Z,32.72
2023-01-09T11:55:34.867Z,27.70
2023-01-09T11:57:14.231Z,29.23
2023-01-09T11:58:46.342Z,23.77
2023-01-09T12:00:30.874Z,25.55
2023-01-09T12:02:39.776Z,29.65
2023-01-09T12:04:23.959Z,27.58
2023-01-09T12:06:06.077Z,32.55
2023-01-09T12:08:07.121Z,38.72
2023-01-09T12:09:41.959Z,23.50
2023-01-09T12:11:13.984Z,27.45
2023-01-09T12:13:15.333Z,27.17
2023-01-09T12:15:04.116Z,26.60
2023-01-09T12:16:48.380Z,25.40
2023-01-09T12:18:38.060Z,25.00
2023-01-09T12:20:28.220Z,27.60
2023-01-09T12:22:25.282Z,23.67
2023-01-09T12:24:34.297Z,26.33
2023-01-09T12:26:23.539Z,39.40
2023-01-09T12:28:19.590Z,28.80
2023-01-09T12:30:16.868Z,25.48
2023-01-09T12:32:29.847Z,25.80
2023-01-09T12:34:20.250Z,23.80
2023-01-09T12:36:28.768Z,31.67
2023-01-09T12:38:05.619Z,26.75
2023-01-09T12:40:11.541Z,27.65
2023-01-09T12:42:25.384Z,24.80
2023-01-09T12:44:34.329Z,25.17
2023-01-09T12:46:17.044Z,24.98
2023-01-09T12:47:50.538Z,26.00
2023-01-09T12:49:38.333Z,26.60
2023-01-09T12:51:28.489Z,23.30
2023-01-09T12:53:14.614Z,24.95
2023-01-09T12:54:51.981Z,27.00
2023-01-09T12:56:34.600Z,23.55
2023-01-09T12:58:23.259Z,27.42
2023-01-09T13:00:01.889Z,27.42
2023-01-09T13:01:40.493Z,27.05
2023-01-09T13:03:27.363Z,27.15
2023-01-09T13:05:33.709Z,27.92
2023-01-09T13:07:12.411Z,25.67
2023-01-09T13:09:26.937Z,28.83
2023-01-09T13:11:18.957Z,29.85
2023-01-09T13:12:52.989Z,26.70
2023-01-09T13:14:48.719Z,29.37
2023-01-09T13:16:34.043Z,24.35
2023-01-09T13:18:28.098Z,24.42
2023-01-09T13:20:00.327Z,23.58
2023-01-09T13:21:33.143Z,24.63
2023-01-09T13:23:06.182Z,23.38
2023-01-09T13:24:38.245Z,26.83
2023-01-09T13:26:16.243Z,28.73
2023-01-09T13:27:58.203Z,27.92
2023-01-09T13:29:33.648Z,28.35
2023-01-09T13:31:21.494Z,26.67
2023-01-09T13:33:21.983Z,27.23
2023-01-09T13:34:57.626Z,29.70
2023-01-09T13:36:33.403Z,27.33
2023-01-09T13:38:05.455Z,30.55
2023-01-09T13:39:37.629Z,25.80
2023-01-09T13:41:36.155Z,27.83
2023-01-09T13:43:10.195Z,27.55
2023-01-09T13:44:42.866Z,29.73
2023-01-09T13:46:15.071Z,29.77
2023-01-09T13:47:47.423Z,29.52
2023-01-09T13:49:47.290Z,31.27
2023-01-09T13:51:58.462Z,29.85
2023-01-09T13:53:32.338Z,27.45
2023-01-09T13:55:16.655Z,26.00
2023-01-09T13:57:19.088Z,29.73
2023-01-09T13:58:59.303Z,27.13
2023-01-09T14:00:38.086Z,28.35
2023-01-09T14:02:35.127Z,26.92
2023-01-09T14:04:10.329Z,28.38
2023-01-09T14:05:42.382Z,30.17
2023-01-09T14:07:20.341Z,32.30
2023-01-09T14:09:18.592Z,29.38
2023-01-09T14:11:00.525Z,28.70
2023-01-09T14:12:40.850Z,27.48
2023-01-09T14:14:23.826Z,26.10
2023-01-09T14:16:04.799Z,26.48
2023-01-09T14:17:38.206Z,28.58
2023-01-09T14:19:16.092Z,31.25
2023-01-09T14:21:11.851Z,28.70
2023-01-09T14:22:55.865Z,26.70
2023-01-09T14:24:52.884Z,28.45
2023-01-09T14:26:41.869Z,31.77
2023-01-09T14:28:23.791Z,34.10
2023-01-09T14:30:27.833Z,33.00
2023-01-09T14:32:26.647Z,30.88
2023-01-09T14:34:36.092Z,34.17
2023-01-09T14:36:16.042Z,31.70
2023-01-09T14:37:59.906Z,30.98
2023-01-09T14:39:33.064Z,30.23
2023-01-09T14:41:49.775Z,32.13
2023-01-09T14:43:48.954Z,33.28
2023-01-09T14:45:26.364Z,30.90
2023-01-09T14:47:19.230Z,32.33
2023-01-09T14:49:26.088Z,31.77
2023-01-09T14:51:00.011Z,33.85
2023-01-09T14:52:39.193Z,33.92
2023-01-09T14:54:33.525Z,31.05
2023-01-09T14:56:08.746Z,35.60
2023-01-09T14:57:40.723Z,34.05
2023-01-09T14:59:14.831Z,33.75
2023-01-09T15:00:59.254Z,33.00
2023-01-09T15:02:34.712Z,33.33
2023-01-09T15:04:19.126Z,35.03
2023-01-09T15:05:52.999Z,36.80
2023-01-09T15:07:34.527Z,36.45
2023-01-09T15:09:09.631Z,34.97
2023-01-09T15:10:44.495Z,39.40
2023-01-09T15:12:20.619Z,36.45
2023-01-09T15:13:53.703Z,35.97
2023-01-09T15:15:26.181Z,37.80
2023-01-09T15:16:58.602Z,39.53
2023-01-09T15:18:34.242Z,40.80
2023-01-09T15:20:08.029Z,42.80
2023-01-09T15:21:40.105Z,39.70
2023-01-09T15:23:23.280Z,36.75
2023-01-09T15:24:55.442Z,38.93
2023-01-09T15:26:31.322Z,39.95
2023-01-09T15:28:35.223Z,41.20
2023-01-09T15:30:17.190Z,38.38
2023-01-09T15:31:54.526Z,42.63
2023-01-09T15:33:26.910Z,42.50
2023-01-09T15:35:09.714Z,40.88
2023-01-09T15:36:42.009Z,40.72
2023-01-09T15:38:33.482Z,48.20
2023-01-09T15:40:10.047Z,46.47
2023-01-09T15:42:00.467Z,40.30
2023-01-09T15:43:33.481Z,46.53
2023-01-09T15:45:06.196Z,43.75
2023-01-09T15:46:38.242Z,46.45
2023-01-09T15:48:18.891Z,44.55
2023-01-09T15:49:51.516Z,46.97
2023-01-09T15:51:24.627Z,50.77
2023-01-09T15:52:57.478Z,47.30
2023-01-09T15:54:31.725Z,41.65
2023-01-09T15:56:08.323Z,47.85
2023-01-09T15:57:51.647Z,47.05
2023-01-09T15:59:29.093Z,48.15
2023-01-09T16:01:27.534Z,51.55
2023-01-09T16:03:12.568Z,47.22
2023-01-09T16:04:44.711Z,41.67
2023-01-09T16:06:22.586Z,48.25
2023-01-09T16:07:54.685Z,47.17
2023-01-09T16:09:29.913Z,40.67
2023-01-09T16:11:04.559Z,48.25
2023-01-09T16:12:36.599Z,48.95
2023-01-09T16:14:27.671Z,53.50
2023-01-09T16:16:00.558Z,47.65
2023-01-09T16:17:34.108Z,56.65
2023-01-09T16:20:38.550Z,50.30
2023-01-09T16:22:37.277Z,51.78
2023-01-09T16:24:15.483Z,50.72
2023-01-09T16:25:47.451Z,48.17
2023-01-09T16:27:27.377Z,49.47
2023-01-09T16:29:38.620Z,54.20
2023-01-09T16:31:25.331Z,52.38
2023-01-09T16:32:57.508Z,47.10
2023-01-09T16:34:30.158Z,52.45
2023-01-09T16:36:05.357Z,59.80
2023-01-09T16:37:37.786Z,52.05
2023-01-09T16:39:19.353Z,50.83
2023-01-09T16:41:23.617Z,67.88
2023-01-09T16:43:01.137Z,51.35
2023-01-09T16:44:33.357Z,49.63
2023-01-09T16:46:05.573Z,56.42
2023-01-09T16:47:37.917Z,52.15
2023-01-09T16:49:23.759Z,52.45
2023-01-09T16:50:55.849Z,47.33
2023-01-09T16:52:27.869Z,64.93
2023-01-09T16:53:59.909Z,52.80
2023-01-09T16:55:32.013Z,60.80
2023-01-09T16:57:04.115Z,67.07
2023-01-09T16:58:36.527Z,67.20
2023-01-09T17:00:15.988Z,82.47
2023-01-09T17:01:48.584Z,63.92
2023-01-09T17:03:21.018Z,69.30
2023-01-09T17:04:55.661Z,76.30
2023-01-09T17:06:28.914Z,89.63
2023-01-09T17:08:00.865Z,76.05
2023-01-09T17:09:33.082Z,79.50
2023-01-09T17:11:05.641Z,75.30
2023-01-09T17:12:38.901Z,80.80
2023-01-09T17:14:14.373Z,77.07
2023-01-09T17:15:46.719Z,73.90
2023-01-09T17:17:20.381Z,74.13
2023-01-09T17:18:52.492Z,69.78
2023-01-09T17:21:57.251Z,73.63
2023-01-09T17:23:29.404Z,71.95
2023-01-09T17:25:19.867Z,67.53
2023-01-09T17:27:10.721Z,64.20
2023-01-09T17:28:52.078Z,64.60
2023-01-09T17:30:24.240Z,60.88
2023-01-09T17:31:57.612Z,67.68
2023-01-09T17:33:30.060Z,67.43
2023-01-09T17:35:02.070Z,54.42
2023-01-09T17:36:35.321Z,56.58
2023-01-09T17:38:09.805Z,62.80
2023-01-09T17:39:42.212Z,62.90
2023-01-09T17:41:14.415Z,55.28
2023-01-09T17:42:46.451Z,58.70
2023-01-09T17:44:18.546Z,61.17
2023-01-09T17:45:51.121Z,57.15
2023-01-09T17:47:23.405Z,58.35
2023-01-09T17:48:55.690Z,48.45
2023-01-09T17:50:34.119Z,54.17
2023-01-09T17:52:07.273Z,60.15
2023-01-09T17:53:39.290Z,54.35
2023-01-09T17:55:11.484Z,52.20
2023-01-09T17:56:46.015Z,47.90
2023-01-09T17:58:30.510Z,42.78
2023-01-09T18:00:02.822Z,47.55
2023-01-09T18:01:34.844Z,42.05
2023-01-09T18:03:08.249Z,41.80
2023-01-09T18:04:40.264Z,56.30
2023-01-09T18:06:13.207Z,52.45
2023-01-09T18:07:45.286Z,39.60
2023-01-09T18:09:18.313Z,42.10
2023-01-09T18:10:50.388Z,36.92
2023-01-09T18:12:22.505Z,46.67
2023-01-09T18:13:57.041Z,41.30
2023-01-09T18:15:29.094Z,70.22
2023-01-09T18:17:02.762Z,56.75
2023-01-09T18:18:35.824Z,55.67
2023-01-09T18:20:08.703Z,56.50
2023-01-09T18:21:40.821Z,46.78
2023-01-09T18:23:13.184Z,45.17
2023-01-09T18:26:21.590Z,38.10
2023-01-09T18:27:53.687Z,44.17
2023-01-09T18:29:25.807Z,43.28
2023-01-09T18:30:57.954Z,42.55
2023-01-09T18:32:29.955Z,44.08
2023-01-09T18:34:07.075Z,46.53
2023-01-09T18:35:39.494Z,41.47
2023-01-09T18:37:11.625Z,55.97
2023-01-09T18:38:43.686Z,46.22
2023-01-09T18:40:15.848Z,42.00
2023-01-09T18:41:48.034Z,44.20
2023-01-09T18:43:20.652Z,46.10
2023-01-09T18:44:52.666Z,42.15
2023-01-09T18:46:25.554Z,41.72
2023-01-09T18:47:57.894Z,46.35
2023-01-09T18:49:29.975Z,38.88
2023-01-09T18:51:03.766Z,38.80
2023-01-09T18:52:35.812Z,37.35
2023-01-09T18:54:12.051Z,45.08
2023-01-09T18:55:44.127Z,50.08
2023-01-09T18:57:16.133Z,38.45
2023-01-09T18:58:49.066Z,39.08
2023-01-09T19:00:21.584Z,49.42
2023-01-09T19:01:53.561Z,46.58
2023-01-09T19:03:25.611Z,55.28
2023-01-09T19:04:57.574Z,51.83
2023-01-09T19:06:30.864Z,44.63
2023-01-09T19:08:02.887Z,57.05
2023-01-09T19:09:36.166Z,58.20
2023-01-09T19:11:08.265Z,44.50
2023-01-09T19:12:40.583Z,37.72
2023-01-09T19:14:12.807Z,37.42
2023-01-09T19:15:44.855Z,53.20
2023-01-09T19:17:17.048Z,37.03
2023-01-09T19:18:49.367Z,40.17
2023-01-09T19:20:21.467Z,35.58
2023-01-09T19:21:53.687Z,42.42
2023-01-09T19:23:25.814Z,38.85
2023-01-09T19:24:57.850Z,34.55
2023-01-09T19:26:31.315Z,41.65
2023-01-09T19:29:36.799Z,40.22
2023-01-09T19:31:09.087Z,36.92
2023-01-09T19:32:41.181Z,37.03
2023-01-09T19:34:13.868Z,33.80
2023-01-09T19:35:49.183Z,38.60
2023-01-09T19:37:21.287Z,40.15
2023-01-09T19:38:57.845Z,36.78
2023-01-09T19:40:29.897Z,33.55
2023-01-09T19:42:01.991Z,34.03
2023-01-09T19:43:34.089Z,37.40
2023-01-09T19:45:06.641Z,38.85
2023-01-09T19:46:38.660Z,32.55
2023-01-09T19:48:10.676Z,34.67
2023-01-09T19:49:42.716Z,33.53
2023-01-09T19:51:16.165Z,33.67
2023-01-09T19:52:48.268Z,33.30
2023-01-09T19:54:20.325Z,38.45
2023-01-09T19:55:52.335Z,37.47
2023-01-09T19:57:24.431Z,38.20
2023-01-09T19:58:59.031Z,39.50
2023-01-09T20:00:31.190Z,39.55
2023-01-09T20:02:03.742Z,38.80
2023-01-09T20:03:35.962Z,38.47
2023-01-09T20:05:09.080Z,37.92
2023-01-09T20:06:44.156Z,34.53
2023-01-09T20:08:18.858Z,66.00
2023-01-09T20:09:50.958Z,37.55
2023-01-09T20:11:24.975Z,41.95
2023-01-09T20:12:57.049Z,35.30
2023-01-09T20:14:30.083Z,43.75
2023-01-09T20:16:03.705Z,35.75
2023-01-09T20:17:35.788Z,43.67
2023-01-09T20:19:09.035Z,36.20
2023-01-09T20:20:49.082Z,56.00
2023-01-09T20:22:21.230Z,52.92
2023-01-09T20:23:55.818Z,41.72
2023-01-09T20:25:27.863Z,40.35
2023-01-09T20:27:00.976Z,47.67
2023-01-09T20:28:33.124Z,44.47
2023-01-09T20:30:05.927Z,57.13
2023-01-09T20:31:38.022Z,62.72
2023-01-09T20:33:10.045Z,52.70
2023-01-09T20:34:44.168Z,55.30
2023-01-09T20:36:16.310Z,44.35
2023-01-09T20:37:48.256Z,47.53
2023-01-09T20:39:20.602Z,51.00
2023-01-09T20:40:52.686Z,44.78
2023-01-09T20:42:24.687Z,45.83
2023-01-09T20:44:06.152Z,46.38
2023-01-09T20:45:38.757Z,52.10
2023-01-09T20:47:10.826Z,37.90
2023-01-09T20:48:43.635Z,41.03
2023-01-09T20:50:16.344Z,48.65
2023-01-09T20:51:52.751Z,39.80
2023-01-09T20:53:24.808Z,38.33
2023-01-09T20:54:56.909Z,36.40
2023-01-09T20:56:30.849Z,42.00
2023-01-09T20:58:02.973Z,40.05
2023-01-09T20:59:35.107Z,38.90
2023-01-09T21:01:14.178Z,42.15
2023-01-09T21:02:46.242Z,41.83
2023-01-09T21:04:18.711Z,45.22
2023-01-09T21:05:50.849Z,39.88
2023-01-09T21:07:24.987Z,43.63
2023-01-09T21:08:57.003Z,41.30
2023-01-09T21:10:28.991Z,40.78
2023-01-09T21:12:01.032Z,41.90
2023-01-09T21:13:33.192Z,39.10
2023-01-09T21:15:08.797Z,52.42
2023-01-09T21:16:40.965Z,42.15
2023-01-09T21:18:13.077Z,39.45
2023-01-09T21:19:45.325Z,41.78
2023-01-09T21:21:19.448Z,46.08